createdAt,value
2018-02-14T00:01:18.128Z,0.60
2018-02-14T00:03:45.614Z,0.60
2018-02-14T00:06:13.118Z,0.60
2018-02-14T00:08:41.393Z,0.50
2018-02-14T00:11:08.892Z,0.50
2018-02-14T00:13:36.734Z,0.50
2018-02-14T00:16:04.231Z,0.50
2018-02-14T00:18:31.728Z,0.50
2018-02-14T00:20:59.272Z,0.50
2018-02-14T00:23:26.757Z,0.50
2018-02-14T00:25:55.349Z,0.50
2018-02-14T00:28:22.852Z,0.40
2018-02-14T00:30:50.339Z,0.40
2018-02-14T00:33:18.243Z,0.40
2018-02-14T00:35:45.750Z,0.40
2018-02-14T00:38:13.244Z,0.40
2018-02-14T00:40:41.543Z,0.30
2018-02-14T00:43:09.046Z,0.30
2018-02-14T00:45:36.853Z,0.30
2018-02-14T00:48:04.363Z,0.30
2018-02-14T00:50:31.867Z,0.30
2018-02-14T00:52:59.373Z,0.20
2018-02-14T00:55:26.857Z,0.20
2018-02-14T00:57:54.753Z,0.10
2018-02-14T01:00:22.307Z,0.20
2018-02-14T01:02:49.832Z,0.20
2018-02-14T01:05:17.357Z,0.10
2018-02-14T01:07:44.847Z,0.10
2018-02-14T01:10:12.852Z,0.10
2018-02-14T01:12:40.368Z,0.10
2018-02-14T01:15:07.870Z,0.20
2018-02-14T01:17:35.388Z,0.10
2018-02-14T01:20:09.359Z,0.10
2018-02-14T01:22:36.850Z,0.10
2018-02-14T01:25:04.356Z,0.10
2018-02-14T01:27:32.184Z,0.10
2018-02-14T01:29:59.706Z,0.00
2018-02-14T01:32:27.203Z,0.00
2018-02-14T01:34:54.713Z,0.00
2018-02-14T01:37:22.212Z,0.00
2018-02-14T01:39:50.210Z,-0.10
2018-02-14T01:42:18.477Z,-0.10
2018-02-14T01:44:46.001Z,-0.10
2018-02-14T01:47:14.011Z,-0.10
2018-02-14T01:49:41.502Z,-0.10
2018-02-14T01:52:09.002Z,-0.10
2018-02-14T01:54:36.520Z,-0.20
2018-02-14T01:57:04.028Z,-0.20
2018-02-14T01:59:31.857Z,-0.10
2018-02-14T02:01:59.359Z,-0.20
2018-02-14T02:04:26.864Z,-0.20
2018-02-14T02:06:54.383Z,-0.20
2018-02-14T02:09:22.663Z,-0.20
2018-02-14T02:11:51.240Z,-0.20
2018-02-14T02:14:18.736Z,-0.20
2018-02-14T02:16:46.226Z,-0.20
2018-02-14T02:19:13.725Z,-0.30
2018-02-14T02:21:41.239Z,-0.30
2018-02-14T02:24:09.139Z,-0.30
2018-02-14T02:26:37.224Z,-0.40
2018-02-14T02:29:04.740Z,-0.40
2018-02-14T02:31:32.256Z,-0.40
2018-02-14T02:33:59.786Z,-0.40
2018-02-14T02:36:28.366Z,-0.40
2018-02-14T02:38:55.863Z,-0.40
2018-02-14T02:41:24.395Z,-0.40
2018-02-14T02:43:52.687Z,-0.40
2018-02-14T02:46:20.186Z,-0.40
2018-02-14T02:48:48.121Z,-0.40
2018-02-14T02:51:15.641Z,-0.50
2018-02-14T02:53:43.135Z,-0.50
2018-02-14T02:56:10.637Z,-0.50
2018-02-14T02:58:38.138Z,-0.50
2018-02-14T03:01:06.021Z,-0.50
2018-02-14T03:03:33.559Z,-0.50
2018-02-14T03:06:01.818Z,-0.60
2018-02-14T03:08:29.812Z,-0.60
2018-02-14T03:10:57.294Z,-0.60
2018-02-14T03:13:24.783Z,-0.70
2018-02-14T03:15:52.786Z,-0.70
2018-02-14T03:18:20.307Z,-0.70
2018-02-14T03:20:47.815Z,-0.70
2018-02-14T03:23:15.344Z,-0.70
2018-02-14T03:25:42.849Z,-0.70
2018-02-14T03:28:10.356Z,-0.80
2018-02-14T03:30:37.888Z,-0.80
2018-02-14T03:33:05.424Z,-0.80
2018-02-14T03:35:33.272Z,-0.80
2018-02-14T03:38:00.774Z,-0.80
2018-02-14T03:40:28.267Z,-0.90
2018-02-14T03:42:56.549Z,-1.00
2018-02-14T03:45:24.803Z,-1.00
2018-02-14T03:47:52.789Z,-1.10
2018-02-14T03:50:20.292Z,-1.10
2018-02-14T03:52:47.781Z,-1.10
2018-02-14T03:55:15.778Z,-1.10
2018-02-14T03:57:43.278Z,-1.10
2018-02-14T04:00:10.889Z,-1.20
2018-02-14T04:02:38.457Z,-1.20
2018-02-14T04:05:06.729Z,-1.30
2018-02-14T04:07:35.313Z,-1.30
2018-02-14T04:10:02.808Z,-1.30
2018-02-14T04:12:30.302Z,-1.30
2018-02-14T04:14:57.838Z,-1.30
2018-02-14T04:17:25.334Z,-1.30
2018-02-14T04:19:53.150Z,-1.30
2018-02-14T04:22:20.672Z,-1.30
2018-02-14T04:24:48.932Z,-1.30
2018-02-14T04:27:16.720Z,-1.30
2018-02-14T04:29:44.210Z,-1.30
2018-02-14T04:32:11.709Z,-1.30
2018-02-14T04:34:39.486Z,-1.30
2018-02-14T04:37:07.009Z,-1.30
2018-02-14T04:39:34.509Z,-1.30
2018-02-14T04:42:02.788Z,-1.40
2018-02-14T04:44:30.292Z,-1.40
2018-02-14T04:46:58.072Z,-1.40
2018-02-14T04:49:25.578Z,-1.50
2018-02-14T04:51:53.065Z,-1.50
2018-02-14T04:54:20.580Z,-1.50
2018-02-14T04:56:48.094Z,-1.50
2018-02-14T04:59:15.895Z,-1.60
2018-02-14T05:01:44.162Z,-1.40
2018-02-14T05:04:11.665Z,-1.50
2018-02-14T05:06:39.702Z,-1.40
2018-02-14T05:09:07.203Z,-1.30
2018-02-14T05:11:34.712Z,-1.30
2018-02-14T05:14:03.310Z,-1.40
2018-02-14T05:16:30.843Z,-1.40
2018-02-14T05:18:58.341Z,-1.30
2018-02-14T05:21:25.857Z,-1.30
2018-02-14T05:23:53.367Z,-1.30
2018-02-14T05:26:20.880Z,-1.30
2018-02-14T05:28:49.485Z,-1.30
2018-02-14T05:31:17.083Z,-1.30
2018-02-14T05:33:44.587Z,-1.30
2018-02-14T05:36:12.473Z,-1.30
2018-02-14T05:38:39.967Z,-1.30
2018-02-14T05:41:07.480Z,-1.30
2018-02-14T05:43:35.299Z,-1.30
2018-02-14T05:46:02.798Z,-1.30
2018-02-14T05:48:30.298Z,-1.30
2018-02-14T05:50:58.094Z,-1.30
2018-02-14T05:53:25.587Z,-1.30
2018-02-14T05:55:53.099Z,-1.30
2018-02-14T05:58:20.628Z,-1.30
2018-02-14T06:00:48.123Z,-1.40
2018-02-14T06:03:15.614Z,-1.30
2018-02-14T06:05:43.574Z,-1.30
2018-02-14T06:08:11.099Z,-1.30
2018-02-14T06:10:38.621Z,-1.30
2018-02-14T06:13:06.482Z,-1.40
2018-02-14T06:15:33.996Z,-1.40
2018-02-14T06:18:01.506Z,-1.40
2018-02-14T06:20:29.342Z,-1.40
2018-02-14T06:22:56.851Z,-1.40
2018-02-14T06:25:24.395Z,-1.40
2018-02-14T06:27:52.215Z,-1.40
2018-02-14T06:30:19.735Z,-1.50
2018-02-14T06:32:47.243Z,-1.50
2018-02-14T06:35:15.031Z,-1.50
2018-02-14T06:37:42.639Z,-1.50
2018-02-14T06:40:10.131Z,-1.40
2018-02-14T06:42:37.972Z,-1.40
2018-02-14T06:45:06.248Z,-1.30
2018-02-14T06:47:34.514Z,-1.30
2018-02-14T06:50:02.508Z,-1.30
2018-02-14T06:52:30.016Z,-1.30
2018-02-14T06:54:57.584Z,-1.30
2018-02-14T06:57:25.483Z,-1.30
2018-02-14T06:59:53.039Z,-1.30
2018-02-14T07:02:21.358Z,-1.30
2018-02-14T07:04:49.151Z,-1.30
2018-02-14T07:07:16.663Z,-1.30
2018-02-14T07:09:44.171Z,-1.30
2018-02-14T07:12:11.914Z,-1.30
2018-02-14T07:14:39.420Z,-1.20
2018-02-14T07:17:07.687Z,-1.20
2018-02-14T07:19:36.262Z,-1.20
2018-02-14T07:22:03.758Z,-1.20
2018-02-14T07:24:31.272Z,-1.20
2018-02-14T07:26:59.095Z,-1.20
2018-02-14T07:29:26.596Z,-1.20
2018-02-14T07:31:54.103Z,-1.10
2018-02-14T07:34:21.933Z,-1.10
2018-02-14T07:36:50.205Z,-1.00
2018-02-14T07:39:18.474Z,-1.00
2018-02-14T07:41:46.464Z,-1.00
2018-02-14T07:44:14.742Z,-0.90
2018-02-14T07:46:43.001Z,-0.90
2018-02-14T07:49:10.826Z,-0.90
2018-02-14T07:51:38.366Z,-0.80
2018-02-14T07:54:05.889Z,-0.80
2018-02-14T07:56:34.513Z,-0.80
2018-02-14T07:59:02.024Z,-0.80
2018-02-14T08:01:30.298Z,-0.70
2018-02-14T08:03:57.833Z,-0.70
2018-02-14T08:06:25.335Z,-0.70
2018-02-14T08:08:52.856Z,-0.70
2018-02-14T08:11:20.760Z,-0.60
2018-02-14T08:13:48.276Z,-0.60
2018-02-14T08:16:15.776Z,-0.60
2018-02-14T08:18:43.797Z,-0.60
2018-02-14T08:21:11.308Z,-0.50
2018-02-14T08:23:38.807Z,-0.50
2018-02-14T08:26:06.649Z,-0.50
2018-02-14T08:28:34.896Z,-0.40
2018-02-14T08:31:02.407Z,-0.40
2018-02-14T08:33:30.979Z,-0.40
2018-02-14T08:35:58.504Z,-0.40
2018-02-14T08:38:26.018Z,-0.30
2018-02-14T08:40:53.839Z,-0.30
2018-02-14T08:43:21.402Z,-0.30
2018-02-14T08:45:48.890Z,-0.20
2018-02-14T08:48:16.705Z,-0.10
2018-02-14T08:50:44.207Z,-0.10
2018-02-14T08:53:11.689Z,-0.10
2018-02-14T08:55:39.640Z,0.00
2018-02-14T08:58:07.189Z,0.00
2018-02-14T09:00:34.795Z,0.10
2018-02-14T09:03:02.610Z,0.10
2018-02-14T09:05:30.226Z,0.20
2018-02-14T09:07:57.787Z,0.20
2018-02-14T09:10:25.727Z,0.30
2018-02-14T09:12:53.274Z,0.30
2018-02-14T09:15:20.826Z,0.30
2018-02-14T09:17:48.683Z,0.40
2018-02-14T09:20:16.227Z,0.40
2018-02-14T09:22:43.789Z,0.50
2018-02-14T09:25:11.681Z,0.50
2018-02-14T09:27:39.248Z,0.60
2018-02-14T09:30:06.807Z,0.60
2018-02-14T09:32:34.612Z,0.60
2018-02-14T09:35:02.116Z,0.60
2018-02-14T09:37:29.631Z,0.70
2018-02-14T09:39:57.612Z,0.70
2018-02-14T09:42:25.119Z,0.80
2018-02-14T09:44:53.411Z,0.80
2018-02-14T09:47:21.948Z,0.90
2018-02-14T09:49:49.441Z,0.90
2018-02-14T09:52:16.939Z,0.90
2018-02-14T09:54:44.792Z,1.00
2018-02-14T09:57:12.293Z,1.00
2018-02-14T09:59:39.806Z,1.10
2018-02-14T10:02:08.413Z,1.20
2018-02-14T10:04:35.914Z,1.10
2018-02-14T10:07:03.414Z,1.20
2018-02-14T10:09:31.397Z,1.30
2018-02-14T10:11:58.916Z,1.30
2018-02-14T10:14:27.170Z,1.40
2018-02-14T10:16:54.984Z,1.30
2018-02-14T10:19:22.485Z,1.40
2018-02-14T10:21:49.973Z,1.40
2018-02-14T10:24:17.796Z,1.40
2018-02-14T10:26:45.298Z,1.50
2018-02-14T10:29:13.575Z,1.60
2018-02-14T10:31:41.388Z,1.60
2018-02-14T10:34:08.939Z,1.60
2018-02-14T10:36:36.452Z,1.60
2018-02-14T10:39:05.087Z,1.70
2018-02-14T10:41:32.613Z,1.70
2018-02-14T10:44:00.898Z,1.90
2018-02-14T10:46:28.453Z,1.90
2018-02-14T10:48:56.756Z,2.00
2018-02-14T10:51:24.278Z,2.00
2018-02-14T10:53:52.103Z,2.10
2018-02-14T10:56:19.684Z,2.20
2018-02-14T10:58:47.214Z,2.20
2018-02-14T11:01:21.446Z,2.40
2018-02-14T11:03:51.740Z,2.40
2018-02-14T11:06:19.263Z,2.50
2018-02-14T11:08:47.055Z,2.50
2018-02-14T11:11:14.576Z,2.60
2018-02-14T11:13:42.103Z,2.60
2018-02-14T11:16:10.768Z,2.80
2018-02-14T11:18:38.404Z,2.80
2018-02-14T11:21:05.935Z,2.90
2018-02-14T11:23:34.486Z,3.00
2018-02-14T11:26:02.047Z,3.00
2018-02-14T11:28:29.578Z,3.10
2018-02-14T11:30:57.430Z,3.20
2018-02-14T11:33:24.968Z,3.20
2018-02-14T11:35:52.496Z,3.30
2018-02-14T11:38:20.318Z,3.40
2018-02-14T11:40:47.853Z,3.50
2018-02-14T11:43:15.414Z,3.50
2018-02-14T11:45:43.180Z,3.60
2018-02-14T11:48:10.713Z,3.70
2018-02-14T11:50:39.012Z,3.90
2018-02-14T11:53:06.808Z,3.90
2018-02-14T11:55:34.366Z,3.90
2018-02-14T11:58:01.860Z,4.00
2018-02-14T12:00:29.733Z,4.20
2018-02-14T12:02:58.057Z,4.30
2018-02-14T12:05:25.581Z,4.30
2018-02-14T12:07:53.484Z,4.50
2018-02-14T12:10:20.997Z,4.60
2018-02-14T12:12:49.341Z,4.90
2018-02-14T12:15:17.138Z,4.90
2018-02-14T12:17:45.415Z,5.10
2018-02-14T12:20:12.936Z,5.00
2018-02-14T12:22:40.750Z,5.10
2018-02-14T12:25:08.359Z,5.20
2018-02-14T12:27:36.639Z,6.10
2018-02-14T12:30:04.474Z,6.10
2018-02-14T12:32:32.007Z,6.50
2018-02-14T12:35:00.285Z,7.40
2018-02-14T12:37:28.072Z,7.40
2018-02-14T12:39:55.572Z,7.50
2018-02-14T12:42:23.105Z,7.70
2018-02-14T12:44:50.931Z,8.60
2018-02-14T12:47:19.182Z,9.80
2018-02-14T12:49:46.691Z,9.80
2018-02-14T12:52:14.620Z,9.70
2018-02-14T12:54:42.886Z,10.30
2018-02-14T12:57:10.388Z,10.30
2018-02-14T12:59:38.234Z,10.40
2018-02-14T13:02:05.721Z,10.40
2018-02-14T13:04:33.251Z,10.20
2018-02-14T13:07:01.230Z,10.20
2018-02-14T13:09:28.735Z,10.40
2018-02-14T13:11:56.240Z,10.60
2018-02-14T13:14:24.014Z,11.10
2018-02-14T13:16:51.516Z,11.00
2018-02-14T13:19:19.006Z,11.10
2018-02-14T13:21:47.596Z,11.20
2018-02-14T13:24:15.115Z,11.20
2018-02-14T13:26:42.609Z,11.60
2018-02-14T13:29:10.577Z,11.70
2018-02-14T13:31:38.864Z,11.30
2018-02-14T13:34:06.369Z,11.30
2018-02-14T13:36:35.086Z,11.30
2018-02-14T13:39:03.356Z,11.00
2018-02-14T13:41:31.669Z,11.10
2018-02-14T13:44:00.431Z,11.10
2018-02-14T13:46:29.095Z,11.10
2018-02-14T13:48:56.599Z,11.40
2018-02-14T13:51:24.452Z,11.00
2018-02-14T13:53:51.970Z,11.20
2018-02-14T13:56:19.468Z,11.10
2018-02-14T13:58:48.140Z,11.00
2018-02-14T14:01:16.411Z,11.10
2018-02-14T14:03:43.912Z,11.10
2018-02-14T14:06:11.766Z,11.00
2018-02-14T14:08:39.279Z,10.70
2018-02-14T14:11:06.768Z,10.30
2018-02-14T14:13:34.706Z,10.80
2018-02-14T14:16:02.211Z,10.50
2018-02-14T14:18:29.700Z,10.70
2018-02-14T14:20:57.635Z,10.80
2018-02-14T14:23:25.309Z,10.30
2018-02-14T14:25:52.806Z,10.30
2018-02-14T14:28:20.802Z,10.50
2018-02-14T14:30:48.292Z,10.40
2018-02-14T14:33:15.792Z,10.50
2018-02-14T14:35:43.627Z,10.10
2018-02-14T14:38:11.123Z,10.10
2018-02-14T14:40:38.627Z,10.30
2018-02-14T14:43:06.418Z,10.30
2018-02-14T14:45:34.695Z,10.10
2018-02-14T14:48:02.191Z,10.10
2018-02-14T14:50:30.402Z,10.20
2018-02-14T14:52:57.913Z,10.00
2018-02-14T14:55:26.188Z,10.10
2018-02-14T14:57:54.797Z,10.00
2018-02-14T15:00:22.388Z,10.00
2018-02-14T15:02:51.619Z,10.10
2018-02-14T15:05:19.625Z,10.10
2018-02-14T15:07:47.183Z,9.80
2018-02-14T15:10:14.683Z,9.90
2018-02-14T15:12:42.487Z,9.60
2018-02-14T15:15:10.043Z,9.70
2018-02-14T15:17:37.572Z,9.70
2018-02-14T15:20:05.386Z,9.60
2018-02-14T15:22:32.869Z,9.30
2018-02-14T15:25:00.363Z,9.40
2018-02-14T15:27:28.248Z,9.30
2018-02-14T15:29:56.510Z,9.20
2018-02-14T15:32:24.082Z,9.20
2018-02-14T15:34:51.959Z,9.10
2018-02-14T15:37:20.410Z,9.10
2018-02-14T15:39:47.881Z,9.00
2018-02-14T15:42:16.578Z,9.00
2018-02-14T15:44:44.069Z,9.00
2018-02-14T15:47:11.576Z,8.80
2018-02-14T15:49:40.155Z,8.50
2018-02-14T15:52:07.768Z,8.50
2018-02-14T15:54:36.703Z,8.30
2018-02-14T15:57:04.699Z,8.30
2018-02-14T15:59:32.186Z,7.90
2018-02-14T16:01:59.688Z,7.50
2018-02-14T16:04:27.508Z,7.30
2018-02-14T16:06:55.068Z,7.30
2018-02-14T16:09:22.563Z,7.10
2018-02-14T16:11:50.488Z,7.00
2018-02-14T16:14:17.982Z,6.90
2018-02-14T16:16:45.505Z,6.80
2018-02-14T16:19:13.545Z,6.80
2018-02-14T16:21:41.032Z,6.50
2018-02-14T16:24:08.558Z,6.30
2018-02-14T16:26:37.221Z,5.90
2018-02-14T16:29:04.715Z,5.90
2018-02-14T16:31:32.228Z,5.90
2018-02-14T16:33:59.990Z,5.70
2018-02-14T16:36:27.512Z,5.60
2018-02-14T16:38:55.005Z,5.50
2018-02-14T16:41:22.808Z,5.40
2018-02-14T16:43:50.315Z,5.30
2018-02-14T16:46:17.846Z,5.20
2018-02-14T16:48:45.802Z,5.20
2018-02-14T16:51:13.324Z,5.00
2018-02-14T16:53:40.816Z,4.90
2018-02-14T16:56:08.652Z,4.90
2018-02-14T16:58:36.272Z,4.70
2018-02-14T17:01:05.417Z,4.70
2018-02-14T17:03:33.206Z,4.70
2018-02-14T17:06:00.742Z,4.50
2018-02-14T17:08:28.239Z,4.50
2018-02-14T17:10:56.069Z,4.40
2018-02-14T17:13:23.567Z,4.20
2018-02-14T17:15:51.096Z,4.20
2018-02-14T17:18:18.958Z,4.20
2018-02-14T17:20:46.494Z,4.10
2018-02-14T17:23:14.809Z,4.10
2018-02-14T17:25:42.303Z,4.10
2018-02-14T17:28:09.825Z,4.00
2018-02-14T17:30:37.765Z,4.00
2018-02-14T17:33:05.293Z,4.00
2018-02-14T17:35:33.908Z,3.80
2018-02-14T17:38:01.493Z,3.80
2018-02-14T17:40:28.999Z,3.80
2018-02-14T17:42:56.899Z,3.70
2018-02-14T17:45:25.174Z,3.70
2018-02-14T17:47:52.686Z,3.60
2018-02-14T17:50:20.529Z,3.60
2018-02-14T17:52:48.030Z,3.50
2018-02-14T17:55:15.542Z,3.50
2018-02-14T17:57:43.508Z,3.50
2018-02-14T18:00:11.395Z,3.60
2018-02-14T18:02:39.030Z,3.50
2018-02-14T18:05:06.687Z,3.50
2018-02-14T18:07:34.196Z,3.40
2018-02-14T18:10:02.006Z,3.40
2018-02-14T18:12:29.571Z,3.30
2018-02-14T18:14:57.087Z,3.30
2018-02-14T18:17:24.624Z,3.30
2018-02-14T18:19:52.136Z,3.30
2018-02-14T18:22:20.017Z,3.20
2018-02-14T18:24:47.584Z,3.20
2018-02-14T18:27:15.170Z,3.20
2018-02-14T18:29:42.796Z,3.10
2018-02-14T18:32:10.297Z,3.10
2018-02-14T18:34:38.184Z,3.10
2018-02-14T18:37:06.617Z,3.00
2018-02-14T18:39:34.261Z,3.00
2018-02-14T18:42:02.126Z,3.00
2018-02-14T18:44:29.676Z,3.00
2018-02-14T18:46:57.261Z,2.80
2018-02-14T18:49:24.844Z,2.90
2018-02-14T18:51:52.695Z,2.80
2018-02-14T18:54:20.216Z,2.80
2018-02-14T18:56:48.817Z,2.80
2018-02-14T18:59:16.682Z,2.80
2018-02-14T19:01:44.275Z,2.80
2018-02-14T19:04:11.873Z,2.80
2018-02-14T19:06:40.530Z,2.70
2018-02-14T19:09:08.131Z,2.70
2018-02-14T19:11:35.665Z,2.70
2018-02-14T19:14:04.264Z,2.60
2018-02-14T19:16:31.826Z,2.60
2018-02-14T19:18:59.359Z,2.60
2018-02-14T19:21:27.311Z,2.60
2018-02-14T19:23:54.834Z,2.50
2018-02-14T19:26:22.685Z,2.40
2018-02-14T19:28:50.501Z,2.50
2018-02-14T19:31:18.027Z,2.40
2018-02-14T19:33:45.628Z,2.50
2018-02-14T19:36:13.467Z,2.50
2018-02-14T19:38:41.217Z,2.50
2018-02-14T19:41:08.765Z,2.40
2018-02-14T19:43:36.620Z,2.50
2018-02-14T19:46:04.158Z,2.50
2018-02-14T19:48:32.478Z,2.40
2018-02-14T19:51:00.484Z,2.40
2018-02-14T19:53:28.040Z,2.40
2018-02-14T19:55:55.606Z,2.40
2018-02-14T19:58:23.748Z,2.40
2018-02-14T20:00:52.188Z,2.40
2018-02-14T20:03:19.886Z,2.40
2018-02-14T20:05:47.774Z,2.40
2018-02-14T20:08:15.472Z,2.40
2018-02-14T20:10:43.079Z,2.40
2018-02-14T20:13:10.991Z,2.40
2018-02-14T20:15:38.611Z,2.40
2018-02-14T20:18:06.207Z,2.40
2018-02-14T20:20:34.070Z,2.30
2018-02-14T20:23:01.750Z,2.30
2018-02-14T20:25:29.364Z,2.30
2018-02-14T20:27:57.232Z,2.30
2018-02-14T20:30:24.844Z,2.20
2018-02-14T20:32:52.635Z,2.20
2018-02-14T20:35:20.543Z,2.20
2018-02-14T20:37:48.138Z,2.20
2018-02-14T20:40:15.717Z,2.10
2018-02-14T20:42:44.398Z,2.20
2018-02-14T20:45:11.932Z,2.20
2018-02-14T20:47:39.601Z,2.20
2018-02-14T20:50:07.874Z,2.20
2018-02-14T20:52:36.958Z,2.10
2018-02-14T20:55:05.337Z,2.10
2018-02-14T20:57:33.955Z,2.10
2018-02-14T21:00:01.498Z,2.10
2018-02-14T21:02:29.008Z,2.10
2018-02-14T21:04:57.870Z,2.10
2018-02-14T21:07:25.451Z,2.10
2018-02-14T21:09:53.790Z,2.10
2018-02-14T21:12:21.667Z,2.00
2018-02-14T21:14:49.288Z,2.00
2018-02-14T21:17:16.826Z,2.00
2018-02-14T21:19:44.732Z,2.00
2018-02-14T21:22:12.233Z,2.00
2018-02-14T21:24:39.766Z,1.90
2018-02-14T21:27:07.751Z,2.00
2018-02-14T21:29:35.387Z,2.00
2018-02-14T21:32:02.893Z,2.00
2018-02-14T21:34:30.700Z,1.90
2018-02-14T21:36:58.225Z,1.90
2018-02-14T21:39:25.733Z,1.90
2018-02-14T21:41:53.670Z,1.90
2018-02-14T21:44:21.198Z,1.80
2018-02-14T21:46:48.878Z,1.90
2018-02-14T21:49:17.477Z,1.90
2018-02-14T21:51:45.864Z,1.90
2018-02-14T21:54:13.428Z,1.90
2018-02-14T21:56:41.384Z,1.90
2018-02-14T21:59:08.900Z,1.90
2018-02-14T22:01:36.428Z,1.90
2018-02-14T22:04:04.282Z,1.90
2018-02-14T22:06:31.815Z,1.90
2018-02-14T22:09:00.243Z,1.80
2018-02-14T22:11:28.083Z,1.80
2018-02-14T22:13:55.582Z,1.90
2018-02-14T22:16:23.890Z,1.80
2018-02-14T22:18:52.452Z,1.80
2018-02-14T22:21:20.010Z,1.80
2018-02-14T22:23:47.511Z,1.80
2018-02-14T22:26:15.318Z,1.80
2018-02-14T22:28:42.916Z,1.90
2018-02-14T22:31:11.179Z,1.90
2018-02-14T22:33:39.090Z,1.80
2018-02-14T22:36:06.600Z,1.80
2018-02-14T22:38:34.311Z,1.80
2018-02-14T22:41:02.155Z,1.80
2018-02-14T22:43:29.647Z,1.80
2018-02-14T22:45:57.335Z,1.80
2018-02-14T22:48:25.136Z,1.70
2018-02-14T22:50:52.656Z,1.70
2018-02-14T22:53:20.158Z,1.70
2018-02-14T22:55:48.081Z,1.80
2018-02-14T22:58:15.805Z,1.80
2018-02-14T23:00:43.343Z,1.70
2018-02-14T23:03:11.296Z,1.70
2018-02-14T23:05:39.552Z,1.70
2018-02-14T23:08:07.826Z,1.70
2018-02-14T23:10:35.831Z,1.80
2018-02-14T23:13:03.319Z,1.80
2018-02-14T23:15:30.834Z,1.80
2018-02-14T23:17:59.425Z,1.80
2018-02-14T23:20:26.936Z,1.80
2018-02-14T23:22:54.438Z,1.90
2018-02-14T23:25:23.052Z,1.80
2018-02-14T23:27:50.711Z,1.80
2018-02-14T23:30:18.436Z,1.80
2018-02-14T23:32:47.035Z,1.80
2018-02-14T23:35:14.527Z,1.80
2018-02-14T23:37:42.053Z,1.80
2018-02-14T23:40:09.972Z,1.70
2018-02-14T23:42:37.477Z,1.70
2018-02-14T23:45:05.073Z,1.70
2018-02-14T23:47:33.017Z,1.80
2018-02-14T23:50:00.661Z,1.80
2018-02-14T23:52:28.370Z,1.80
2018-02-14T23:54:56.213Z,1.80
2018-02-14T23:57:23.877Z,1.80
2018-02-14T23:59:51.379Z,1.70
